createdAt,value
2022-08-20T00:00:33.374Z,21.90
2022-08-20T00:03:04.623Z,22.00
2022-08-20T00:05:34.036Z,22.00
2022-08-20T00:08:04.176Z,21.90
2022-08-20T00:10:32.764Z,21.90
2022-08-20T00:13:01.421Z,22.00
2022-08-20T00:15:30.954Z,21.90
2022-08-20T00:17:59.243Z,21.90
2022-08-20T00:20:30.853Z,21.80
2022-08-20T00:22:59.181Z,21.80
2022-08-20T00:25:28.529Z,21.80
2022-08-20T00:27:56.956Z,21.80
2022-08-20T00:30:25.397Z,21.80
2022-08-20T00:32:55.117Z,21.70
2022-08-20T00:35:24.277Z,21.60
2022-08-20T00:37:57.465Z,21.60
2022-08-20T00:40:30.855Z,21.60
2022-08-20T00:43:00.248Z,21.60
2022-08-20T00:45:29.733Z,21.60
2022-08-20T00:47:57.983Z,21.60
2022-08-20T00:50:28.888Z,21.70
2022-08-20T00:52:58.509Z,21.60
2022-08-20T00:55:31.376Z,21.60
2022-08-20T00:58:02.140Z,21.60
2022-08-20T01:00:33.326Z,21.60
2022-08-20T01:03:01.937Z,21.60
2022-08-20T01:05:30.190Z,21.60
2022-08-20T01:07:59.776Z,21.60
2022-08-20T01:10:29.804Z,21.60
2022-08-20T01:12:59.503Z,21.50
2022-08-20T01:15:31.081Z,21.60
2022-08-20T01:18:00.108Z,21.50
2022-08-20T01:20:30.078Z,21.50
2022-08-20T01:23:21.903Z,21.50
2022-08-20T01:25:53.320Z,21.60
2022-08-20T01:28:22.884Z,21.60
2022-08-20T01:30:51.255Z,21.60
2022-08-20T01:33:19.516Z,21.60
2022-08-20T01:35:47.883Z,21.50
2022-08-20T01:38:16.282Z,21.50
2022-08-20T01:41:12.674Z,21.50
2022-08-20T01:43:42.068Z,21.50
2022-08-20T01:46:11.879Z,21.50
2022-08-20T01:48:40.078Z,21.50
2022-08-20T01:51:13.975Z,21.50
2022-08-20T01:53:43.993Z,21.50
2022-08-20T01:56:15.411Z,21.60
2022-08-20T01:58:49.493Z,21.50
2022-08-20T02:01:26.870Z,21.50
2022-08-20T02:03:55.298Z,21.50
2022-08-20T02:06:28.253Z,21.50
2022-08-20T02:08:56.705Z,21.50
2022-08-20T02:11:26.499Z,21.50
2022-08-20T02:13:54.827Z,21.50
2022-08-20T02:16:23.351Z,21.60
2022-08-20T02:18:54.457Z,21.60
2022-08-20T02:21:22.657Z,21.50
2022-08-20T02:23:50.915Z,21.50
2022-08-20T02:26:19.720Z,21.50
2022-08-20T02:28:49.952Z,21.40
2022-08-20T02:31:18.131Z,21.30
2022-08-20T02:34:21.652Z,21.40
2022-08-20T02:36:36.508Z,21.40
2022-08-20T02:39:05.775Z,21.40
2022-08-20T02:41:36.194Z,21.40
2022-08-20T02:44:05.962Z,21.40
2022-08-20T02:46:34.234Z,21.40
2022-08-20T02:49:02.379Z,21.40
2022-08-20T02:51:31.292Z,21.40
2022-08-20T02:53:59.861Z,21.40
2022-08-20T02:56:28.196Z,21.50
2022-08-20T02:58:56.733Z,21.50
2022-08-20T03:01:26.317Z,21.40
2022-08-20T03:03:57.194Z,21.40
2022-08-20T03:06:25.333Z,21.30
2022-08-20T03:08:53.457Z,21.30
2022-08-20T03:11:21.765Z,21.30
2022-08-20T03:13:50.053Z,21.30
2022-08-20T03:16:18.602Z,21.30
2022-08-20T03:18:52.085Z,21.30
2022-08-20T03:21:20.531Z,21.40
2022-08-20T03:23:48.728Z,21.30
2022-08-20T03:26:17.531Z,21.30
2022-08-20T03:28:45.655Z,21.30
2022-08-20T03:31:17.493Z,21.30
2022-08-20T03:33:53.155Z,21.30
2022-08-20T03:36:27.669Z,21.30
2022-08-20T03:38:57.140Z,21.30
2022-08-20T03:41:25.799Z,21.30
2022-08-20T03:43:54.637Z,21.30
2022-08-20T03:46:23.934Z,21.30
2022-08-20T03:48:56.628Z,21.30
2022-08-20T03:51:28.976Z,21.30
2022-08-20T03:53:57.355Z,21.30
2022-08-20T03:56:25.557Z,21.20
2022-08-20T03:58:53.928Z,21.20
2022-08-20T04:01:44.460Z,21.20
2022-08-20T04:04:12.398Z,21.20
2022-08-20T04:06:41.380Z,21.20
2022-08-20T04:09:11.799Z,21.20
2022-08-20T04:11:40.264Z,21.20
2022-08-20T04:14:09.301Z,21.20
2022-08-20T04:16:40.343Z,21.20
2022-08-20T04:19:08.880Z,21.30
2022-08-20T04:21:38.563Z,21.30
2022-08-20T04:24:07.259Z,21.30
2022-08-20T04:26:37.262Z,21.30
2022-08-20T04:29:05.671Z,21.40
2022-08-20T04:31:34.863Z,21.30
2022-08-20T04:34:03.365Z,21.30
2022-08-20T04:36:31.773Z,21.30
2022-08-20T04:39:01.359Z,21.30
2022-08-20T04:41:29.636Z,21.20
2022-08-20T04:43:58.405Z,21.30
2022-08-20T04:46:28.917Z,21.40
2022-08-20T04:48:57.540Z,21.30
2022-08-20T04:51:26.810Z,21.30
2022-08-20T04:53:56.444Z,21.30
2022-08-20T04:56:27.073Z,21.30
2022-08-20T04:58:55.721Z,21.30
2022-08-20T05:01:24.316Z,21.30
2022-08-20T05:03:54.952Z,21.30
2022-08-20T05:06:24.798Z,21.30
2022-08-20T05:08:53.752Z,21.40
2022-08-20T05:11:33.669Z,21.40
2022-08-20T05:14:06.267Z,21.40
2022-08-20T05:16:39.082Z,21.40
2022-08-20T05:19:08.941Z,21.40
2022-08-20T05:21:37.453Z,21.50
2022-08-20T05:24:06.385Z,21.50
2022-08-20T05:26:34.632Z,21.50
2022-08-20T05:29:04.962Z,21.50
2022-08-20T05:31:34.971Z,21.50
2022-08-20T05:34:03.527Z,21.50
2022-08-20T05:36:31.790Z,21.60
2022-08-20T05:38:59.959Z,21.70
2022-08-20T05:41:30.186Z,21.70
2022-08-20T05:44:01.277Z,21.70
2022-08-20T05:46:31.332Z,21.70
2022-08-20T05:49:02.035Z,21.70
2022-08-20T05:51:30.853Z,21.70
2022-08-20T05:53:59.426Z,21.70
2022-08-20T05:56:30.814Z,21.70
2022-08-20T05:59:00.756Z,21.70
2022-08-20T06:01:29.045Z,21.70
2022-08-20T06:04:14.595Z,21.70
2022-08-20T06:06:46.072Z,21.70
2022-08-20T06:09:15.264Z,21.80
2022-08-20T06:11:43.464Z,21.80
2022-08-20T06:14:11.708Z,21.80
2022-08-20T06:16:39.968Z,21.80
2022-08-20T06:19:26.320Z,21.80
2022-08-20T06:21:57.191Z,21.80
2022-08-20T06:24:25.566Z,21.80
2022-08-20T06:26:57.565Z,21.90
2022-08-20T06:29:25.723Z,21.90
2022-08-20T06:31:53.910Z,21.90
2022-08-20T06:34:22.090Z,21.90
2022-08-20T06:36:50.252Z,21.90
2022-08-20T06:39:19.914Z,21.90
2022-08-20T06:41:48.143Z,22.00
2022-08-20T06:44:17.048Z,21.90
2022-08-20T06:46:45.538Z,22.00
2022-08-20T06:49:13.728Z,22.10
2022-08-20T06:51:41.954Z,22.10
2022-08-20T06:54:10.130Z,22.10
2022-08-20T06:56:39.697Z,22.10
2022-08-20T06:59:07.872Z,22.10
2022-08-20T07:01:36.020Z,22.20
2022-08-20T07:04:05.733Z,22.20
2022-08-20T07:06:33.885Z,22.30
2022-08-20T07:09:02.097Z,22.30
2022-08-20T07:11:30.347Z,22.30
2022-08-20T07:13:59.957Z,22.40
2022-08-20T07:16:28.428Z,22.40
2022-08-20T07:18:56.784Z,22.40
2022-08-20T07:21:24.987Z,22.50
2022-08-20T07:23:53.269Z,22.60
2022-08-20T07:26:21.429Z,22.60
2022-08-20T07:28:49.646Z,22.70
2022-08-20T07:31:36.498Z,22.70
2022-08-20T07:34:04.725Z,22.80
2022-08-20T07:36:33.118Z,22.80
2022-08-20T07:39:05.812Z,22.80
2022-08-20T07:41:34.511Z,22.80
2022-08-20T07:44:02.723Z,22.80
2022-08-20T07:46:32.543Z,22.90
2022-08-20T07:49:00.883Z,22.90
2022-08-20T07:51:29.782Z,23.00
2022-08-20T07:54:00.242Z,22.90
2022-08-20T07:56:29.356Z,22.90
2022-08-20T07:58:59.301Z,23.00
2022-08-20T08:01:30.552Z,23.00
2022-08-20T08:04:00.775Z,23.00
2022-08-20T08:06:31.001Z,23.10
2022-08-20T08:09:01.665Z,23.00
2022-08-20T08:11:29.927Z,23.10
2022-08-20T08:13:58.269Z,23.10
2022-08-20T08:16:26.581Z,23.10
2022-08-20T08:18:56.548Z,23.10
2022-08-20T08:21:27.255Z,23.10
2022-08-20T08:23:56.264Z,23.00
2022-08-20T08:26:25.846Z,23.10
2022-08-20T08:28:54.015Z,23.10
2022-08-20T08:31:22.492Z,23.10
2022-08-20T08:33:50.719Z,23.10
2022-08-20T08:36:18.901Z,23.10
2022-08-20T08:38:48.530Z,23.10
2022-08-20T08:41:19.225Z,23.10
2022-08-20T08:43:48.137Z,23.20
2022-08-20T08:46:19.128Z,23.20
2022-08-20T08:48:48.787Z,23.20
2022-08-20T08:51:18.184Z,23.20
2022-08-20T08:53:51.128Z,23.20
2022-08-20T08:56:19.290Z,23.20
2022-08-20T08:58:47.843Z,23.20
2022-08-20T09:01:54.651Z,23.20
2022-08-20T09:04:06.051Z,23.20
2022-08-20T09:06:34.371Z,23.10
2022-08-20T09:09:05.415Z,23.10
2022-08-20T09:11:45.065Z,23.10
2022-08-20T09:14:13.617Z,23.00
2022-08-20T09:16:52.133Z,23.00
2022-08-20T09:19:21.710Z,23.10
2022-08-20T09:21:49.904Z,23.10
2022-08-20T09:24:19.490Z,23.10
2022-08-20T09:26:47.875Z,23.20
2022-08-20T09:29:16.045Z,23.30
2022-08-20T09:31:45.233Z,23.30
2022-08-20T09:34:14.683Z,23.40
2022-08-20T09:36:42.910Z,23.50
2022-08-20T09:39:12.648Z,23.50
2022-08-20T09:41:42.362Z,23.60
2022-08-20T09:44:10.493Z,23.50
2022-08-20T09:46:38.867Z,23.60
2022-08-20T09:49:10.542Z,23.60
2022-08-20T09:51:39.318Z,23.70
2022-08-20T09:54:07.659Z,23.70
2022-08-20T09:56:36.295Z,23.80
2022-08-20T09:59:05.982Z,23.80
2022-08-20T10:01:34.988Z,23.90
2022-08-20T10:04:03.269Z,23.90
2022-08-20T10:06:35.800Z,23.90
2022-08-20T10:09:06.024Z,23.90
2022-08-20T10:11:34.355Z,23.90
2022-08-20T10:14:02.589Z,23.90
2022-08-20T10:16:32.145Z,23.90
2022-08-20T10:19:00.779Z,23.90
2022-08-20T10:21:28.920Z,23.90
2022-08-20T10:23:57.310Z,23.90
2022-08-20T10:26:25.464Z,23.90
2022-08-20T10:28:53.702Z,23.90
2022-08-20T10:31:21.882Z,23.90
2022-08-20T10:33:51.453Z,24.00
2022-08-20T10:36:19.762Z,24.00
2022-08-20T10:38:49.132Z,24.00
2022-08-20T10:41:17.583Z,24.10
2022-08-20T10:43:45.778Z,24.20
2022-08-20T10:46:14.157Z,24.20
2022-08-20T10:48:42.319Z,24.20
2022-08-20T10:51:11.952Z,24.20
2022-08-20T10:53:41.069Z,24.30
2022-08-20T10:56:12.688Z,24.30
2022-08-20T10:58:43.228Z,24.30
2022-08-20T11:01:12.803Z,24.30
2022-08-20T11:03:59.868Z,24.30
2022-08-20T11:06:29.499Z,24.30
2022-08-20T11:08:57.609Z,24.30
2022-08-20T11:11:25.759Z,24.30
2022-08-20T11:13:53.907Z,24.30
2022-08-20T11:16:22.867Z,24.30
2022-08-20T11:18:51.142Z,24.20
2022-08-20T11:21:19.288Z,24.20
2022-08-20T11:23:48.803Z,24.20
2022-08-20T11:26:21.241Z,24.20
2022-08-20T11:28:49.337Z,24.10
2022-08-20T11:31:17.562Z,24.00
2022-08-20T11:33:45.727Z,24.00
2022-08-20T11:36:14.063Z,24.00
2022-08-20T11:38:42.248Z,23.90
2022-08-20T11:41:11.718Z,23.90
2022-08-20T11:43:39.900Z,23.80
2022-08-20T11:46:08.160Z,23.80
2022-08-20T11:48:36.381Z,23.80
2022-08-20T11:51:05.373Z,23.80
2022-08-20T11:53:33.542Z,23.80
2022-08-20T11:56:02.568Z,23.70
2022-08-20T11:58:33.949Z,23.70
2022-08-20T12:01:02.151Z,23.70
2022-08-20T12:03:31.047Z,23.70
2022-08-20T12:05:59.229Z,23.60
2022-08-20T12:08:29.414Z,23.70
2022-08-20T12:10:58.193Z,23.70
2022-08-20T12:13:30.545Z,23.90
2022-08-20T12:16:01.153Z,24.10
2022-08-20T12:18:29.395Z,24.10
2022-08-20T12:20:57.528Z,24.10
2022-08-20T12:23:25.736Z,24.00
2022-08-20T12:25:54.154Z,23.90
2022-08-20T12:28:25.803Z,23.90
2022-08-20T12:30:54.282Z,23.80
2022-08-20T12:33:23.836Z,23.70
2022-08-20T12:35:52.239Z,23.60
2022-08-20T12:38:20.492Z,23.60
2022-08-20T12:40:48.688Z,23.60
2022-08-20T12:43:16.856Z,23.50
2022-08-20T12:45:45.029Z,23.50
2022-08-20T12:48:13.881Z,23.60
2022-08-20T12:50:45.757Z,23.60
2022-08-20T12:53:13.992Z,23.60
2022-08-20T12:55:42.298Z,23.50
2022-08-20T12:58:10.757Z,23.40
2022-08-20T13:00:43.301Z,23.30
2022-08-20T13:03:12.137Z,23.20
2022-08-20T13:05:40.806Z,23.30
2022-08-20T13:08:11.938Z,23.20
2022-08-20T13:10:45.800Z,23.10
2022-08-20T13:13:14.359Z,23.10
2022-08-20T13:15:42.606Z,23.10
2022-08-20T13:18:10.754Z,23.10
2022-08-20T13:20:38.917Z,23.10
2022-08-20T13:23:07.130Z,23.00
2022-08-20T13:25:36.658Z,22.90
2022-08-20T13:28:05.523Z,22.90
2022-08-20T13:30:33.917Z,22.80
2022-08-20T13:33:02.132Z,22.80
2022-08-20T13:35:30.507Z,22.80
2022-08-20T13:37:58.639Z,22.60
2022-08-20T13:40:27.102Z,22.50
2022-08-20T13:42:56.776Z,22.40
2022-08-20T13:45:25.154Z,22.40
2022-08-20T13:47:54.359Z,22.30
2022-08-20T13:50:23.965Z,22.40
2022-08-20T13:52:52.126Z,22.30
2022-08-20T13:55:21.650Z,22.30
2022-08-20T13:57:50.929Z,22.20
2022-08-20T14:00:22.149Z,22.10
2022-08-20T14:02:59.845Z,22.10
2022-08-20T14:05:28.168Z,22.00
2022-08-20T14:07:56.397Z,21.80
2022-08-20T14:10:26.451Z,21.80
2022-08-20T14:12:54.827Z,21.70
2022-08-20T14:15:24.592Z,21.60
2022-08-20T14:17:53.600Z,21.50
2022-08-20T14:20:23.371Z,21.40
2022-08-20T14:22:51.592Z,21.40
2022-08-20T14:25:20.923Z,21.40
2022-08-20T14:27:49.323Z,21.40
2022-08-20T14:30:19.676Z,21.30
2022-08-20T14:32:49.316Z,21.30
2022-08-20T14:35:17.655Z,21.30
2022-08-20T14:37:48.065Z,21.30
2022-08-20T14:40:17.787Z,21.30
2022-08-20T14:42:47.743Z,21.30
2022-08-20T14:45:22.515Z,21.30
2022-08-20T14:47:53.992Z,21.30
2022-08-20T14:50:25.092Z,21.20
2022-08-20T14:52:53.616Z,21.30
2022-08-20T14:55:23.358Z,21.30
2022-08-20T14:57:51.968Z,21.20
2022-08-20T15:00:21.324Z,21.30
2022-08-20T15:02:51.154Z,21.20
2022-08-20T15:05:19.653Z,21.30
2022-08-20T15:07:48.778Z,21.20
2022-08-20T15:10:21.055Z,21.30
2022-08-20T15:12:49.376Z,21.20
2022-08-20T15:15:17.872Z,21.20
2022-08-20T15:17:46.908Z,21.00
2022-08-20T15:20:20.608Z,21.10
2022-08-20T15:22:49.604Z,21.10
2022-08-20T15:25:19.492Z,21.00
2022-08-20T15:27:47.878Z,21.00
2022-08-20T15:30:17.252Z,20.90
2022-08-20T15:32:45.531Z,20.90
2022-08-20T15:35:13.856Z,20.80
2022-08-20T15:37:44.353Z,20.80
2022-08-20T15:40:13.716Z,20.70
2022-08-20T15:42:46.522Z,20.70
2022-08-20T15:45:21.942Z,20.70
2022-08-20T15:47:52.574Z,20.50
2022-08-20T15:50:27.059Z,20.50
2022-08-20T15:52:56.690Z,20.50
2022-08-20T15:55:25.125Z,20.60
2022-08-20T15:57:56.917Z,20.50
2022-08-20T16:00:26.136Z,20.50
2022-08-20T16:03:13.353Z,20.40
2022-08-20T16:05:46.637Z,20.50
2022-08-20T16:08:29.817Z,20.40
2022-08-20T16:11:01.145Z,20.40
2022-08-20T16:13:32.917Z,20.40
2022-08-20T16:16:02.297Z,20.30
2022-08-20T16:18:32.693Z,20.40
2022-08-20T16:21:03.826Z,20.40
2022-08-20T16:23:35.566Z,20.40
2022-08-20T16:26:10.585Z,20.40
2022-08-20T16:28:43.354Z,20.50
2022-08-20T16:31:13.897Z,20.50
2022-08-20T16:33:46.669Z,20.50
2022-08-20T16:36:16.338Z,20.60
2022-08-20T16:38:54.008Z,20.50
2022-08-20T16:41:24.940Z,20.50
2022-08-20T16:43:54.793Z,20.50
2022-08-20T16:46:25.480Z,20.50
2022-08-20T16:48:58.144Z,20.50
2022-08-20T16:51:38.263Z,20.50
2022-08-20T16:54:08.242Z,20.50
2022-08-20T16:56:38.345Z,20.50
2022-08-20T16:59:07.520Z,20.50
2022-08-20T17:01:36.091Z,20.40
2022-08-20T17:04:04.716Z,20.40
2022-08-20T17:06:35.622Z,20.40
2022-08-20T17:09:05.456Z,20.40
2022-08-20T17:11:38.333Z,20.40
2022-08-20T17:14:12.004Z,20.40
2022-08-20T17:16:42.983Z,20.40
2022-08-20T17:19:14.084Z,20.40
2022-08-20T17:21:42.369Z,20.30
2022-08-20T17:24:17.016Z,20.30
2022-08-20T17:26:47.876Z,20.30
2022-08-20T17:29:17.717Z,20.40
2022-08-20T17:31:47.004Z,20.30
2022-08-20T17:34:16.391Z,20.20
2022-08-20T17:36:55.710Z,20.20
2022-08-20T17:39:24.550Z,20.20
2022-08-20T17:41:58.631Z,20.20
2022-08-20T17:44:29.551Z,20.20
2022-08-20T17:46:57.789Z,20.20
2022-08-20T17:49:32.307Z,20.20
2022-08-20T17:52:00.685Z,20.20
2022-08-20T17:54:32.764Z,20.20
2022-08-20T17:57:04.646Z,20.10
2022-08-20T17:59:59.758Z,20.10
2022-08-20T18:02:22.967Z,20.10
2022-08-20T18:04:51.996Z,20.10
2022-08-20T18:07:24.903Z,20.10
2022-08-20T18:09:56.800Z,20.10
2022-08-20T18:12:34.206Z,20.10
2022-08-20T18:15:07.849Z,20.10
2022-08-20T18:18:14.413Z,20.20
2022-08-20T18:20:50.808Z,20.20
2022-08-20T18:23:21.433Z,20.20
2022-08-20T18:25:51.333Z,20.10
2022-08-20T18:28:23.273Z,20.10
2022-08-20T18:30:53.707Z,20.10
2022-08-20T18:33:30.358Z,20.10
2022-08-20T18:36:10.062Z,20.10
2022-08-20T18:38:41.839Z,20.00
2022-08-20T18:41:12.382Z,20.00
2022-08-20T18:43:42.401Z,20.10
2022-08-20T18:46:21.561Z,20.10
2022-08-20T18:48:54.475Z,20.10
2022-08-20T18:51:27.583Z,20.10
2022-08-20T18:53:55.784Z,20.10
2022-08-20T18:56:36.029Z,20.10
2022-08-20T18:59:08.283Z,20.10
2022-08-20T19:01:37.801Z,20.10
2022-08-20T19:04:16.618Z,20.00
2022-08-20T19:06:47.850Z,20.10
2022-08-20T19:09:20.446Z,20.10
2022-08-20T19:12:02.662Z,20.00
2022-08-20T19:14:41.508Z,20.00
2022-08-20T19:17:12.023Z,20.00
2022-08-20T19:19:40.211Z,20.10
2022-08-20T19:22:08.419Z,20.00
2022-08-20T19:24:40.714Z,20.00
2022-08-20T19:27:12.233Z,20.00
2022-08-20T19:29:43.593Z,19.90
2022-08-20T19:32:19.410Z,19.90
2022-08-20T19:34:52.363Z,20.00
2022-08-20T19:37:34.832Z,20.00
2022-08-20T19:40:09.249Z,20.00
2022-08-20T19:42:43.192Z,19.90
2022-08-20T19:45:17.229Z,19.90
2022-08-20T19:47:50.709Z,19.90
2022-08-20T19:50:23.052Z,19.90
2022-08-20T19:53:03.719Z,19.90
2022-08-20T19:55:33.170Z,20.00
2022-08-20T19:58:08.035Z,19.90
2022-08-20T20:00:42.080Z,20.00
2022-08-20T20:03:11.076Z,20.00
2022-08-20T20:05:48.526Z,20.00
2022-08-20T20:08:16.699Z,20.00
2022-08-20T20:10:46.855Z,20.00
2022-08-20T20:13:16.238Z,20.00
2022-08-20T20:15:45.806Z,20.00
2022-08-20T20:18:14.420Z,20.00
2022-08-20T20:20:55.946Z,20.00
2022-08-20T20:23:27.587Z,20.00
2022-08-20T20:26:08.299Z,20.00
2022-08-20T20:28:44.560Z,19.90
2022-08-20T20:31:15.619Z,19.90
2022-08-20T20:33:44.398Z,20.00
2022-08-20T20:36:19.391Z,20.00
2022-08-20T20:38:54.544Z,20.00
2022-08-20T20:41:24.547Z,20.00
2022-08-20T20:44:00.338Z,20.00
2022-08-20T20:46:30.363Z,20.00
2022-08-20T20:48:59.843Z,20.00
2022-08-20T20:51:29.766Z,20.00
2022-08-20T20:53:59.277Z,20.00
2022-08-20T20:56:29.327Z,20.00
2022-08-20T20:59:00.154Z,20.00
2022-08-20T21:01:45.644Z,20.00
2022-08-20T21:04:19.252Z,20.00
2022-08-20T21:06:47.472Z,20.10
2022-08-20T21:09:15.838Z,20.00
2022-08-20T21:11:44.209Z,20.00
2022-08-20T21:14:12.514Z,20.00
2022-08-20T21:16:42.440Z,20.10
2022-08-20T21:19:11.226Z,20.00
2022-08-20T21:21:39.616Z,20.00
2022-08-20T21:24:08.378Z,20.00
2022-08-20T21:26:36.520Z,20.00
2022-08-20T21:29:05.363Z,20.00
2022-08-20T21:31:34.977Z,20.00
2022-08-20T21:34:04.667Z,19.90
2022-08-20T21:36:32.890Z,19.90
2022-08-20T21:39:01.197Z,20.00
2022-08-20T21:41:30.365Z,20.00
2022-08-20T21:43:58.800Z,20.00
2022-08-20T21:46:28.841Z,20.00
2022-08-20T21:48:57.372Z,20.00
2022-08-20T21:51:27.239Z,19.90
2022-08-20T21:53:56.620Z,19.90
2022-08-20T21:56:24.816Z,19.90
2022-08-20T21:58:53.781Z,19.90
2022-08-20T22:01:23.746Z,19.90
2022-08-20T22:03:52.136Z,19.90
2022-08-20T22:06:20.464Z,19.90
2022-08-20T22:08:50.010Z,19.90
2022-08-20T22:11:18.222Z,19.80
2022-08-20T22:13:46.531Z,19.80
2022-08-20T22:16:16.944Z,19.90
2022-08-20T22:18:45.134Z,19.90
2022-08-20T22:21:16.845Z,19.90
2022-08-20T22:23:45.073Z,19.90
2022-08-20T22:26:14.863Z,19.90
2022-08-20T22:28:43.047Z,19.90
2022-08-20T22:31:11.269Z,19.90
2022-08-20T22:33:39.585Z,19.90
2022-08-20T22:36:08.282Z,19.90
2022-08-20T22:38:36.731Z,19.90
2022-08-20T22:41:09.419Z,19.90
2022-08-20T22:43:43.405Z,19.90
2022-08-20T22:46:25.012Z,19.90
2022-08-20T22:48:55.441Z,19.90
2022-08-20T22:51:26.065Z,19.90
2022-08-20T22:53:54.536Z,19.90
2022-08-20T22:56:23.084Z,19.80
2022-08-20T22:58:52.800Z,19.80
2022-08-20T23:01:21.410Z,19.90
2022-08-20T23:03:49.688Z,19.90
2022-08-20T23:06:17.889Z,19.90
2022-08-20T23:08:46.339Z,19.90
2022-08-20T23:11:14.485Z,19.90
2022-08-20T23:13:42.737Z,19.90
2022-08-20T23:16:12.250Z,19.90
2022-08-20T23:18:40.468Z,19.90
2022-08-20T23:21:08.724Z,19.80
2022-08-20T23:23:36.965Z,19.90
2022-08-20T23:26:05.161Z,19.80
2022-08-20T23:28:33.766Z,19.90
2022-08-20T23:31:01.941Z,19.90
2022-08-20T23:33:31.630Z,19.80
2022-08-20T23:36:00.356Z,19.80
2022-08-20T23:38:28.652Z,19.80
2022-08-20T23:40:56.829Z,19.80
2022-08-20T23:43:25.072Z,19.80
2022-08-20T23:48:40.358Z,19.70
2022-08-20T23:56:40.118Z,19.80
2022-08-20T23:59:08.410Z,19.70
